NOS477 UGTB-LIRF
Flight info
| Callsign | NOS477 |
|---|---|
| Flight time | N/A |
| Altitude | 38000 |
| Route | DF N11 ROLIN UN644 SIN UW90 DEVMU UL852 NEGEM Q8 LUKOV/N0467F400 Q8 DOLAP DCT OBLAK DCT KATTI/N0468F390 DCT RIVAM DCT ERPOG/N0473F330 DCT ESODU/N0407F190 Z924 MOPUV |
| Aircraft | B763/H-SDE3FGHIM3RWXY/LB1 |
Departure
| Time | 2026-04-21 15:17 |
|---|---|
| Airport | Tbilisi International Airport (UGTB) |
Arrival
| Time | N/A |
|---|---|
| Airport | Rome–Fiumicino Leonardo da Vinci International Airport (LIRF) |
| Time | Latitude | Longitude | Altitude | Speed | Heading |
|---|---|---|---|---|---|
| 2026-04-21 14:58 | 41.66852 | 44.96378 | 1576 ft | 0 kts | 43° |
| 2026-04-21 15:10 | 41.66846 | 44.96371 | 1575 ft | 2 kts | 41° |
| 2026-04-21 15:10 | 41.66834 | 44.96357 | 1575 ft | 2 kts | 40° |
| 2026-04-21 15:10 | 41.66823 | 44.96345 | 1574 ft | 2 kts | 41° |
| 2026-04-21 15:11 | 41.66812 | 44.96331 | 1573 ft | 2 kts | 54° |
| 2026-04-21 15:11 | 41.66807 | 44.96314 | 1573 ft | 2 kts | 90° |
| 2026-04-21 15:11 | 41.66810 | 44.96294 | 1572 ft | 2 kts | 119° |
| 2026-04-21 15:11 | 41.66814 | 44.96285 | 1571 ft | 1 kts | 135° |
| 2026-04-21 15:12 | 41.66816 | 44.96282 | 1571 ft | 0 kts | 134° |
| 2026-04-21 15:13 | 41.66816 | 44.96283 | 1571 ft | 0 kts | 134° |
| 2026-04-21 15:13 | 41.66811 | 44.96290 | 1572 ft | 3 kts | 134° |
| 2026-04-21 15:14 | 41.66782 | 44.96330 | 1574 ft | 9 kts | 133° |
| 2026-04-21 15:14 | 41.66714 | 44.96410 | 1575 ft | 17 kts | 160° |
| 2026-04-21 15:14 | 41.66547 | 44.96383 | 1561 ft | 33 kts | 194° |
| 2026-04-21 15:14 | 41.66288 | 44.96304 | 1540 ft | 40 kts | 188° |
| 2026-04-21 15:15 | 41.66106 | 44.96389 | 1534 ft | 27 kts | 140° |
| 2026-04-21 15:15 | 41.65999 | 44.96525 | 1530 ft | 13 kts | 136° |
| 2026-04-21 15:15 | 41.65906 | 44.96595 | 1523 ft | 17 kts | 183° |
| 2026-04-21 15:15 | 41.65844 | 44.96516 | 1521 ft | 4 kts | 254° |
| 2026-04-21 15:16 | 41.65842 | 44.96481 | 1523 ft | 1 kts | 284° |
| 2026-04-21 15:16 | 41.65855 | 44.96458 | 1525 ft | 6 kts | 314° |
| 2026-04-21 15:16 | 41.66037 | 44.96223 | 1530 ft | 72 kts | 317° |
| 2026-04-21 15:16 | 41.66578 | 44.95538 | 1543 ft | 139 kts | 316° |
| 2026-04-21 15:17 | 41.67388 | 44.94508 | 1807 ft | 176 kts | 316° |
| 2026-04-21 15:17 | 41.68264 | 44.93397 | 2665 ft | 177 kts | 316° |
| 2026-04-21 15:17 | 41.69156 | 44.92268 | 3396 ft | 183 kts | 317° |
| 2026-04-21 15:17 | 41.70153 | 44.91036 | 3775 ft | 208 kts | 317° |
| 2026-04-21 15:18 | 41.71302 | 44.89616 | 4090 ft | 242 kts | 317° |
| 2026-04-21 15:18 | 41.72570 | 44.88038 | 4808 ft | 260 kts | 317° |
| 2026-04-21 15:18 | 41.73790 | 44.86230 | 5825 ft | 267 kts | 309° |
| 2026-04-21 15:18 | 41.74939 | 44.84331 | 6954 ft | 268 kts | 309° |
| 2026-04-21 15:19 | 41.76099 | 44.82428 | 8090 ft | 269 kts | 309° |
| 2026-04-21 15:19 | 41.77281 | 44.80477 | 9169 ft | 272 kts | 309° |
| 2026-04-21 15:19 | 41.78460 | 44.78529 | 10280 ft | 273 kts | 308° |
| 2026-04-21 15:19 | 41.79679 | 44.76511 | 10800 ft | 296 kts | 308° |
| 2026-04-21 15:20 | 41.81048 | 44.74239 | 11132 ft | 328 kts | 308° |
| 2026-04-21 15:20 | 41.82538 | 44.71766 | 11549 ft | 357 kts | 308° |
| 2026-04-21 15:20 | 41.84102 | 44.69171 | 12648 ft | 365 kts | 308° |
| 2026-04-21 15:20 | 41.85698 | 44.66520 | 13817 ft | 371 kts | 308° |
| 2026-04-21 15:21 | 41.87307 | 44.63840 | 14884 ft | 377 kts | 308° |
| 2026-04-21 15:21 | 41.88968 | 44.61072 | 15919 ft | 383 kts | 307° |
| 2026-04-21 15:21 | 41.90461 | 44.58148 | 16852 ft | 389 kts | 297° |
| 2026-04-21 15:21 | 41.91524 | 44.54794 | 17791 ft | 393 kts | 287° |
| 2026-04-21 15:22 | 41.92085 | 44.51194 | 18699 ft | 399 kts | 276° |
| 2026-04-21 15:22 | 41.92125 | 44.47511 | 19572 ft | 405 kts | 266° |
| 2026-04-21 15:22 | 41.91888 | 44.43751 | 20468 ft | 410 kts | 267° |
| 2026-04-21 15:22 | 41.91790 | 44.39928 | 21291 ft | 416 kts | 268° |
| 2026-04-21 15:23 | 41.91719 | 44.35989 | 22106 ft | 422 kts | 269° |
| 2026-04-21 15:23 | 41.91680 | 44.32095 | 22892 ft | 428 kts | 269° |
| 2026-04-21 15:23 | 41.91654 | 44.28079 | 23734 ft | 432 kts | 269° |
| 2026-04-21 15:23 | 41.91634 | 44.24039 | 24503 ft | 438 kts | 269° |
| 2026-04-21 15:24 | 41.91616 | 44.19969 | 25349 ft | 441 kts | 270° |
| 2026-04-21 15:24 | 41.91600 | 44.15814 | 26064 ft | 447 kts | 270° |
| 2026-04-21 15:24 | 41.91583 | 44.11680 | 26862 ft | 450 kts | 270° |
| 2026-04-21 15:24 | 41.91565 | 44.07466 | 27625 ft | 453 kts | 270° |
| 2026-04-21 15:25 | 41.91547 | 44.03260 | 28289 ft | 458 kts | 270° |
| 2026-04-21 15:25 | 41.91526 | 43.98956 | 29026 ft | 461 kts | 270° |
| 2026-04-21 15:25 | 41.91504 | 43.94658 | 29643 ft | 465 kts | 270° |
| 2026-04-21 15:25 | 41.91481 | 43.90360 | 30360 ft | 465 kts | 270° |
| 2026-04-21 15:26 | 41.91455 | 43.86004 | 31130 ft | 464 kts | 270° |
| 2026-04-21 15:26 | 41.91428 | 43.81704 | 31756 ft | 464 kts | 270° |
| 2026-04-21 15:26 | 41.91400 | 43.77386 | 32392 ft | 463 kts | 270° |
| 2026-04-21 15:26 | 41.91370 | 43.73088 | 33023 ft | 462 kts | 270° |
| 2026-04-21 15:27 | 41.91338 | 43.68825 | 33604 ft | 461 kts | 270° |
| 2026-04-21 15:27 | 41.91305 | 43.64497 | 34064 ft | 461 kts | 270° |
| 2026-04-21 15:27 | 41.91270 | 43.60231 | 34552 ft | 460 kts | 270° |
| 2026-04-21 15:27 | 41.91235 | 43.55998 | 35080 ft | 456 kts | 270° |
| 2026-04-21 15:28 | 41.91198 | 43.51749 | 35562 ft | 454 kts | 270° |
| 2026-04-21 15:28 | 41.91159 | 43.47525 | 36001 ft | 452 kts | 270° |
| 2026-04-21 15:28 | 41.91119 | 43.43348 | 36460 ft | 449 kts | 270° |
| 2026-04-21 15:28 | 41.91077 | 43.39178 | 36842 ft | 448 kts | 270° |
| 2026-04-21 15:29 | 41.91035 | 43.35020 | 37175 ft | 448 kts | 269° |
| 2026-04-21 15:29 | 41.90990 | 43.30884 | 37485 ft | 447 kts | 269° |
| 2026-04-21 15:29 | 41.90945 | 43.26737 | 37789 ft | 447 kts | 268° |
| 2026-04-21 15:29 | 41.90897 | 43.22570 | 37968 ft | 444 kts | 268° |
| 2026-04-21 15:30 | 41.90799 | 43.14349 | 37989 ft | 441 kts | 268° |
| 2026-04-21 15:30 | 41.90694 | 43.06095 | 37983 ft | 444 kts | 269° |
| 2026-04-21 15:31 | 41.90585 | 42.97879 | 37984 ft | 445 kts | 269° |
| 2026-04-21 15:31 | 41.90469 | 42.89629 | 37969 ft | 443 kts | 269° |
| 2026-04-21 15:32 | 41.90291 | 42.81373 | 37958 ft | 444 kts | 266° |
| 2026-04-21 15:32 | 41.89960 | 42.73107 | 37952 ft | 443 kts | 267° |
| 2026-04-21 15:33 | 41.89632 | 42.64896 | 37956 ft | 441 kts | 267° |
| 2026-04-21 15:33 | 41.89302 | 42.56731 | 37960 ft | 441 kts | 267° |
| 2026-04-21 15:34 | 41.88965 | 42.48531 | 37964 ft | 442 kts | 267° |
| 2026-04-21 15:34 | 41.88623 | 42.40358 | 37959 ft | 442 kts | 267° |
| 2026-04-21 15:35 | 41.88273 | 42.32128 | 37966 ft | 441 kts | 266° |
| 2026-04-21 15:35 | 41.87918 | 42.23942 | 37875 ft | 441 kts | 266° |
| 2026-04-21 15:36 | 41.87561 | 42.15816 | 37968 ft | 442 kts | 266° |
| 2026-04-21 15:36 | 41.87192 | 42.07565 | 37980 ft | 443 kts | 267° |
| 2026-04-21 15:37 | 41.86820 | 41.99366 | 37966 ft | 440 kts | 267° |
| 2026-04-21 15:37 | 41.86445 | 41.91244 | 37973 ft | 441 kts | 267° |
| 2026-04-21 15:38 | 41.86061 | 41.83046 | 37980 ft | 442 kts | 267° |
| 2026-04-21 15:38 | 41.85672 | 41.74868 | 37975 ft | 440 kts | 267° |
| 2026-04-21 15:39 | 41.85280 | 41.66756 | 37979 ft | 439 kts | 267° |
| 2026-04-21 15:39 | 41.84879 | 41.58574 | 37982 ft | 439 kts | 267° |
| 2026-04-21 15:40 | 41.84476 | 41.50461 | 37981 ft | 439 kts | 267° |
| 2026-04-21 15:40 | 41.84067 | 41.42343 | 37988 ft | 439 kts | 267° |
| 2026-04-21 15:41 | 41.83651 | 41.34207 | 37984 ft | 438 kts | 266° |
| 2026-04-21 15:41 | 41.83230 | 41.26095 | 37992 ft | 438 kts | 266° |
| 2026-04-21 15:42 | 41.82806 | 41.18021 | 37997 ft | 437 kts | 266° |
| 2026-04-21 15:42 | 41.82374 | 41.09916 | 37997 ft | 436 kts | 266° |
| 2026-04-21 15:43 | 41.81940 | 41.01857 | 37997 ft | 437 kts | 266° |
| 2026-04-21 15:43 | 41.81497 | 40.93757 | 37993 ft | 437 kts | 266° |
| 2026-04-21 15:44 | 41.81049 | 40.85654 | 38009 ft | 438 kts | 266° |
| 2026-04-21 15:44 | 41.80593 | 40.77548 | 37988 ft | 437 kts | 266° |
| 2026-04-21 15:45 | 41.80138 | 40.69529 | 37994 ft | 438 kts | 266° |
| 2026-04-21 15:45 | 41.80121 | 40.61400 | 37994 ft | 437 kts | 274° |
| 2026-04-21 15:46 | 41.80468 | 40.53326 | 37987 ft | 436 kts | 274° |
| 2026-04-21 15:46 | 41.80814 | 40.45259 | 37984 ft | 436 kts | 274° |
| 2026-04-21 15:47 | 41.81158 | 40.37156 | 37984 ft | 436 kts | 274° |
| 2026-04-21 15:47 | 41.81498 | 40.29055 | 37993 ft | 437 kts | 273° |
| 2026-04-21 15:48 | 41.81829 | 40.21009 | 37985 ft | 437 kts | 273° |
| 2026-04-21 15:48 | 41.82159 | 40.12873 | 37985 ft | 437 kts | 273° |
| 2026-04-21 15:49 | 41.82480 | 40.04785 | 37991 ft | 437 kts | 273° |
| 2026-04-21 15:49 | 41.82796 | 39.96664 | 37985 ft | 436 kts | 273° |
| 2026-04-21 15:50 | 41.83104 | 39.88611 | 37983 ft | 437 kts | 273° |
| 2026-04-21 15:50 | 41.83409 | 39.80483 | 37979 ft | 437 kts | 273° |
| 2026-04-21 15:51 | 41.83709 | 39.72373 | 37980 ft | 436 kts | 273° |
| 2026-04-21 15:51 | 41.84001 | 39.64290 | 37977 ft | 436 kts | 273° |
| 2026-04-21 15:52 | 41.84287 | 39.56201 | 37978 ft | 436 kts | 273° |
| 2026-04-21 15:52 | 41.84567 | 39.48142 | 37979 ft | 436 kts | 273° |
| 2026-04-21 15:53 | 41.84846 | 39.39990 | 37990 ft | 437 kts | 273° |
| 2026-04-21 15:53 | 41.85116 | 39.31902 | 37982 ft | 437 kts | 272° |
| 2026-04-21 15:54 | 41.85380 | 39.23838 | 37987 ft | 436 kts | 272° |
| 2026-04-21 15:54 | 41.85596 | 39.17101 | 37989 ft | 436 kts | 272° |
| 2026-04-21 15:55 | 41.85893 | 39.07657 | 37989 ft | 436 kts | 272° |
| 2026-04-21 15:55 | 41.86140 | 38.99573 | 37987 ft | 436 kts | 272° |
| 2026-04-21 15:56 | 41.86383 | 38.91460 | 37974 ft | 435 kts | 272° |
| 2026-04-21 15:56 | 41.86617 | 38.83429 | 37976 ft | 435 kts | 272° |
| 2026-04-21 15:57 | 41.86849 | 38.75302 | 37978 ft | 436 kts | 272° |
| 2026-04-21 15:57 | 41.87072 | 38.67261 | 37973 ft | 436 kts | 272° |
| 2026-04-21 15:58 | 41.87292 | 38.59176 | 37972 ft | 436 kts | 272° |
| 2026-04-21 15:58 | 41.87505 | 38.51085 | 37976 ft | 436 kts | 272° |
| 2026-04-21 15:59 | 41.87713 | 38.42995 | 37970 ft | 435 kts | 272° |
| 2026-04-21 15:59 | 41.87915 | 38.34893 | 37969 ft | 435 kts | 271° |
| 2026-04-21 16:00 | 41.88112 | 38.26812 | 37959 ft | 435 kts | 271° |
| 2026-04-21 16:00 | 41.88303 | 38.18719 | 37963 ft | 435 kts | 271° |
| 2026-04-21 16:01 | 41.88488 | 38.10636 | 37962 ft | 436 kts | 271° |
| 2026-04-21 16:01 | 41.88667 | 38.02536 | 37961 ft | 435 kts | 271° |
| 2026-04-21 16:02 | 41.88840 | 37.94483 | 37964 ft | 435 kts | 272° |
| 2026-04-21 16:02 | 41.89009 | 37.86367 | 37964 ft | 436 kts | 271° |
| 2026-04-21 16:03 | 41.89171 | 37.78279 | 37965 ft | 435 kts | 271° |
| 2026-04-21 16:03 | 41.89327 | 37.70247 | 37961 ft | 434 kts | 271° |
| 2026-04-21 16:04 | 41.89478 | 37.62175 | 37957 ft | 434 kts | 271° |
| 2026-04-21 16:04 | 41.89622 | 37.54123 | 37954 ft | 433 kts | 272° |
| 2026-04-21 16:05 | 41.89762 | 37.46053 | 37959 ft | 432 kts | 272° |
| 2026-04-21 16:05 | 41.89894 | 37.38041 | 37963 ft | 433 kts | 272° |
| 2026-04-21 16:06 | 41.90022 | 37.29993 | 37970 ft | 433 kts | 271° |
| 2026-04-21 16:06 | 41.90144 | 37.21920 | 37970 ft | 433 kts | 271° |
| 2026-04-21 16:07 | 41.90261 | 37.13862 | 37968 ft | 432 kts | 271° |
| 2026-04-21 16:07 | 41.90372 | 37.05848 | 37965 ft | 433 kts | 271° |
| 2026-04-21 16:08 | 41.91116 | 36.93856 | 37969 ft | 433 kts | 275° |
| 2026-04-21 16:09 | 41.91666 | 36.85834 | 37963 ft | 432 kts | 275° |
| 2026-04-21 16:09 | 41.92115 | 36.79187 | 37963 ft | 433 kts | 275° |
| 2026-04-21 16:10 | 41.92738 | 36.69825 | 37969 ft | 432 kts | 275° |
| 2026-04-21 16:10 | 41.93263 | 36.61841 | 37960 ft | 433 kts | 275° |
| 2026-04-21 16:11 | 41.93784 | 36.53838 | 37960 ft | 431 kts | 275° |
| 2026-04-21 16:11 | 41.94296 | 36.45875 | 37962 ft | 431 kts | 275° |
| 2026-04-21 16:12 | 41.94722 | 36.39191 | 37972 ft | 431 kts | 275° |
| 2026-04-21 16:12 | 41.95309 | 36.29880 | 37969 ft | 431 kts | 274° |
| 2026-04-21 16:13 | 41.95725 | 36.23199 | 37985 ft | 431 kts | 275° |
| 2026-04-21 16:13 | 41.96296 | 36.13927 | 37967 ft | 430 kts | 275° |
| 2026-04-21 16:14 | 41.96783 | 36.05908 | 37967 ft | 431 kts | 275° |
| 2026-04-21 16:14 | 41.97264 | 35.97916 | 37966 ft | 433 kts | 275° |
| 2026-04-21 16:15 | 41.97740 | 35.89920 | 37965 ft | 432 kts | 275° |
| 2026-04-21 16:15 | 41.98134 | 35.83203 | 37963 ft | 432 kts | 275° |
| 2026-04-21 16:16 | 41.98677 | 35.73857 | 37963 ft | 432 kts | 275° |
| 2026-04-21 16:16 | 41.99136 | 35.65854 | 37960 ft | 432 kts | 275° |
| 2026-04-21 16:17 | 41.99589 | 35.57839 | 37960 ft | 432 kts | 275° |
| 2026-04-21 16:17 | 42.00036 | 35.49839 | 37961 ft | 430 kts | 275° |
| 2026-04-21 16:18 | 42.00404 | 35.43189 | 37964 ft | 431 kts | 275° |
| 2026-04-21 16:18 | 42.00913 | 35.33855 | 37967 ft | 430 kts | 274° |
| 2026-04-21 16:19 | 42.01345 | 35.25828 | 37977 ft | 433 kts | 274° |
| 2026-04-21 16:19 | 42.01703 | 35.19094 | 37976 ft | 433 kts | 274° |
| 2026-04-21 16:20 | 42.02190 | 35.09727 | 37973 ft | 432 kts | 273° |
| 2026-04-21 16:20 | 42.01964 | 35.01682 | 37970 ft | 433 kts | 267° |
| 2026-04-21 16:21 | 42.01587 | 34.93675 | 37965 ft | 434 kts | 267° |
| 2026-04-21 16:21 | 42.01249 | 34.86942 | 37953 ft | 433 kts | 267° |
| 2026-04-21 16:22 | 42.00864 | 34.78912 | 37958 ft | 433 kts | 267° |
| 2026-04-21 16:22 | 42.00474 | 34.70848 | 37957 ft | 435 kts | 267° |
| 2026-04-21 16:23 | 42.00010 | 34.61416 | 37962 ft | 435 kts | 267° |
| 2026-04-21 16:23 | 41.99604 | 34.53302 | 37970 ft | 436 kts | 267° |
| 2026-04-21 16:24 | 41.99195 | 34.45237 | 37963 ft | 434 kts | 267° |
| 2026-04-21 16:24 | 41.98849 | 34.38497 | 37969 ft | 433 kts | 267° |
| 2026-04-21 16:25 | 41.98432 | 34.30475 | 37976 ft | 435 kts | 266° |
| 2026-04-21 16:25 | 41.98006 | 34.22402 | 37969 ft | 435 kts | 267° |
| 2026-04-21 16:26 | 41.97572 | 34.14278 | 37977 ft | 434 kts | 267° |
| 2026-04-21 16:26 | 41.97063 | 34.04882 | 37971 ft | 435 kts | 267° |
| 2026-04-21 16:27 | 41.96693 | 33.98157 | 37971 ft | 434 kts | 267° |
| 2026-04-21 16:27 | 41.96169 | 33.88731 | 37979 ft | 434 kts | 267° |
| 2026-04-21 16:28 | 41.95717 | 33.80721 | 37973 ft | 434 kts | 267° |
| 2026-04-21 16:28 | 41.95332 | 33.73973 | 37974 ft | 435 kts | 267° |
| 2026-04-21 16:29 | 41.94868 | 33.65958 | 37969 ft | 435 kts | 267° |
| 2026-04-21 16:29 | 41.94397 | 33.57914 | 37970 ft | 433 kts | 267° |
| 2026-04-21 16:30 | 41.93917 | 33.49844 | 37961 ft | 433 kts | 267° |
| 2026-04-21 16:30 | 41.93438 | 33.41856 | 37963 ft | 433 kts | 267° |
| 2026-04-21 16:31 | 41.92949 | 33.33822 | 37963 ft | 433 kts | 266° |
| 2026-04-21 16:31 | 41.92458 | 33.25831 | 37965 ft | 433 kts | 267° |
| 2026-04-21 16:32 | 41.91958 | 33.17795 | 37970 ft | 433 kts | 267° |
| 2026-04-21 16:32 | 41.91454 | 33.09787 | 37967 ft | 433 kts | 267° |
| 2026-04-21 16:33 | 41.90945 | 33.01779 | 37959 ft | 433 kts | 267° |
| 2026-04-21 16:33 | 41.90427 | 32.93729 | 37950 ft | 434 kts | 267° |
| 2026-04-21 16:34 | 41.89904 | 32.85691 | 37943 ft | 432 kts | 267° |
| 2026-04-21 16:34 | 41.89381 | 32.77718 | 37943 ft | 432 kts | 267° |
| 2026-04-21 16:35 | 41.88759 | 32.68368 | 37946 ft | 432 kts | 267° |
| 2026-04-21 16:35 | 41.88224 | 32.60409 | 37943 ft | 432 kts | 267° |
| 2026-04-21 16:36 | 41.87785 | 32.53950 | 37942 ft | 431 kts | 267° |
| 2026-04-21 16:36 | 41.87648 | 32.46072 | 37953 ft | 427 kts | 279° |
| 2026-04-21 16:37 | 41.89393 | 32.38547 | 37964 ft | 428 kts | 295° |
| 2026-04-21 16:37 | 41.91687 | 32.31210 | 37959 ft | 428 kts | 289° |
| 2026-04-21 16:38 | 41.93636 | 32.23697 | 37965 ft | 428 kts | 288° |
| 2026-04-21 16:38 | 41.95473 | 32.16112 | 37969 ft | 428 kts | 288° |
| 2026-04-21 16:39 | 41.97259 | 32.08527 | 37968 ft | 428 kts | 287° |
| 2026-04-21 16:39 | 41.99030 | 32.00920 | 37966 ft | 428 kts | 287° |
| 2026-04-21 16:40 | 42.00793 | 31.93296 | 37967 ft | 427 kts | 287° |
| 2026-04-21 16:40 | 42.02538 | 31.85714 | 37972 ft | 428 kts | 287° |
| 2026-04-21 16:41 | 42.04286 | 31.78100 | 37969 ft | 428 kts | 287° |
| 2026-04-21 16:41 | 42.06031 | 31.70468 | 37968 ft | 426 kts | 287° |
| 2026-04-21 16:42 | 42.07758 | 31.62887 | 37968 ft | 426 kts | 287° |
| 2026-04-21 16:42 | 42.09488 | 31.55265 | 37964 ft | 425 kts | 287° |
| 2026-04-21 16:43 | 42.11201 | 31.47696 | 37972 ft | 424 kts | 287° |
| 2026-04-21 16:43 | 42.12908 | 31.40123 | 37965 ft | 424 kts | 287° |
| 2026-04-21 16:44 | 42.14595 | 31.32617 | 37976 ft | 423 kts | 286° |
| 2026-04-21 16:44 | 42.16298 | 31.25015 | 37974 ft | 423 kts | 286° |
| 2026-04-21 16:45 | 42.17988 | 31.17439 | 37972 ft | 424 kts | 286° |
| 2026-04-21 16:45 | 42.19677 | 31.09845 | 37971 ft | 424 kts | 286° |
| 2026-04-21 16:46 | 42.21351 | 31.02289 | 37973 ft | 424 kts | 286° |
| 2026-04-21 16:46 | 42.23025 | 30.94710 | 37972 ft | 423 kts | 286° |
| 2026-04-21 16:47 | 42.24692 | 30.87132 | 37979 ft | 422 kts | 286° |
| 2026-04-21 16:47 | 42.26350 | 30.79573 | 37984 ft | 423 kts | 286° |
| 2026-04-21 16:48 | 42.28012 | 30.71964 | 37983 ft | 422 kts | 286° |
| 2026-04-21 16:48 | 42.29654 | 30.64427 | 37989 ft | 422 kts | 286° |
| 2026-04-21 16:49 | 42.31306 | 30.56814 | 37986 ft | 421 kts | 286° |
| 2026-04-21 16:49 | 42.32940 | 30.49254 | 37992 ft | 420 kts | 286° |
| 2026-04-21 16:50 | 42.34565 | 30.41711 | 37985 ft | 420 kts | 286° |
| 2026-04-21 16:50 | 42.36188 | 30.34150 | 37984 ft | 421 kts | 285° |
| 2026-04-21 16:51 | 42.37801 | 30.26609 | 37990 ft | 420 kts | 285° |
| 2026-04-21 16:51 | 42.39420 | 30.19011 | 37995 ft | 421 kts | 285° |
| 2026-04-21 16:52 | 42.41016 | 30.11495 | 37982 ft | 420 kts | 285° |